createdAt,value
2018-07-21T00:01:02.995Z,48.51
2018-07-21T00:03:30.668Z,49.21
2018-07-21T00:05:58.280Z,49.00
2018-07-21T00:08:25.896Z,49.08
2018-07-21T00:10:53.479Z,49.45
2018-07-21T00:13:21.133Z,49.49
2018-07-21T00:15:48.745Z,49.94
2018-07-21T00:18:16.389Z,49.71
2018-07-21T00:20:43.957Z,49.94
2018-07-21T00:23:11.587Z,50.26
2018-07-21T00:25:39.344Z,50.25
2018-07-21T00:28:06.946Z,50.14
2018-07-21T00:30:34.534Z,51.08
2018-07-21T00:33:02.163Z,50.69
2018-07-21T00:35:29.767Z,50.87
2018-07-21T00:37:57.398Z,51.43
2018-07-21T00:40:24.988Z,51.38
2018-07-21T00:42:52.628Z,51.36
2018-07-21T00:45:20.628Z,51.80
2018-07-21T00:47:48.216Z,52.21
2018-07-21T00:50:15.818Z,51.98
2018-07-21T00:52:43.474Z,52.10
2018-07-21T00:55:11.072Z,52.28
2018-07-21T01:00:13.063Z,52.18
2018-07-21T01:02:40.649Z,52.54
2018-07-21T01:05:08.338Z,52.38
2018-07-21T01:07:36.037Z,52.40
2018-07-21T01:10:05.326Z,52.57
2018-07-21T01:12:32.954Z,53.54
2018-07-21T01:15:00.630Z,53.93
2018-07-21T01:17:28.292Z,54.37
2018-07-21T01:19:56.567Z,53.69
2018-07-21T01:22:24.204Z,53.53
2018-07-21T01:24:51.844Z,54.00
2018-07-21T01:27:19.489Z,53.99
2018-07-21T01:29:47.036Z,53.93
2018-07-21T01:32:15.788Z,53.77
2018-07-21T01:34:43.430Z,52.92
2018-07-21T01:37:11.002Z,53.32
2018-07-21T01:39:38.620Z,52.74
2018-07-21T01:42:06.239Z,52.51
2018-07-21T01:44:33.871Z,52.97
2018-07-21T01:47:01.502Z,53.38
2018-07-21T01:49:29.085Z,53.04
2018-07-21T01:51:56.646Z,53.27
2018-07-21T01:54:24.222Z,53.53
2018-07-21T01:56:51.793Z,52.77
2018-07-21T01:59:20.345Z,52.68
2018-07-21T02:01:47.945Z,52.87
2018-07-21T02:04:15.545Z,53.00
2018-07-21T02:06:43.149Z,53.37
2018-07-21T02:09:11.087Z,53.23
2018-07-21T02:11:38.897Z,53.49
2018-07-21T02:14:06.723Z,52.94
2018-07-21T02:16:34.393Z,53.60
2018-07-21T02:19:02.180Z,53.25
2018-07-21T02:21:29.743Z,53.19
2018-07-21T02:23:57.311Z,53.93
2018-07-21T02:26:24.916Z,54.34
2018-07-21T02:28:52.580Z,54.46
2018-07-21T02:31:20.220Z,55.16
2018-07-21T02:33:47.839Z,54.89
2018-07-21T02:36:15.419Z,55.02
2018-07-21T02:38:42.968Z,55.13
2018-07-21T02:41:10.533Z,54.63
2018-07-21T02:43:38.173Z,54.57
2018-07-21T02:46:05.896Z,54.74
2018-07-21T02:48:33.627Z,54.05
2018-07-21T02:51:01.312Z,54.03
2018-07-21T02:53:28.919Z,53.58
2018-07-21T02:55:56.613Z,53.84
2018-07-21T02:58:24.229Z,53.53
2018-07-21T03:00:51.878Z,52.76
2018-07-21T03:03:19.510Z,53.37
2018-07-21T03:05:47.148Z,52.98
2018-07-21T03:08:14.795Z,53.01
2018-07-21T03:10:42.387Z,53.59
2018-07-21T03:13:09.995Z,53.31
2018-07-21T03:15:37.615Z,52.82
2018-07-21T03:18:05.267Z,52.86
2018-07-21T03:20:32.855Z,52.57
2018-07-21T03:23:00.474Z,52.50
2018-07-21T03:25:28.121Z,53.03
2018-07-21T03:27:55.702Z,52.76
2018-07-21T03:30:23.344Z,52.86
2018-07-21T03:32:50.995Z,53.20
2018-07-21T03:35:18.581Z,52.61
2018-07-21T03:37:46.201Z,53.54
2018-07-21T03:40:13.858Z,53.08
2018-07-21T03:42:41.570Z,52.93
2018-07-21T03:45:09.239Z,53.40
2018-07-21T03:47:36.905Z,53.15
2018-07-21T03:50:04.653Z,52.64
2018-07-21T03:52:32.366Z,52.95
2018-07-21T03:55:00.055Z,52.81
2018-07-21T03:57:27.757Z,52.69
2018-07-21T03:59:55.470Z,52.67
2018-07-21T04:02:24.002Z,52.67
2018-07-21T04:04:51.593Z,52.25
2018-07-21T04:07:19.195Z,51.86
2018-07-21T04:09:46.788Z,51.50
2018-07-21T04:12:14.477Z,51.87
2018-07-21T04:14:43.290Z,52.06
2018-07-21T04:17:17.718Z,51.60
2018-07-21T04:19:45.399Z,51.10
2018-07-21T04:22:13.025Z,51.39
2018-07-21T04:24:40.709Z,51.50
2018-07-21T04:27:08.359Z,50.89
2018-07-21T04:29:35.972Z,51.63
2018-07-21T04:32:03.675Z,50.31
2018-07-21T04:34:31.297Z,49.95
2018-07-21T04:36:58.953Z,50.60
2018-07-21T04:39:26.601Z,50.78
2018-07-21T04:41:54.333Z,50.51
2018-07-21T04:44:22.353Z,49.16
2018-07-21T04:46:49.991Z,49.21
2018-07-21T04:49:17.597Z,49.42
2018-07-21T04:51:45.320Z,49.75
2018-07-21T04:54:12.910Z,49.06
2018-07-21T04:56:40.561Z,48.93
2018-07-21T04:59:08.170Z,47.95
2018-07-21T05:01:35.807Z,47.55
2018-07-21T05:04:03.358Z,47.20
2018-07-21T05:06:31.037Z,46.15
2018-07-21T05:08:58.669Z,45.31
2018-07-21T05:11:26.328Z,45.54
2018-07-21T05:13:53.917Z,45.09
2018-07-21T05:16:21.634Z,44.88
2018-07-21T05:18:49.245Z,44.91
2018-07-21T05:21:16.857Z,43.79
2018-07-21T05:23:44.485Z,43.76
2018-07-21T05:26:12.115Z,42.78
2018-07-21T05:28:39.747Z,42.83
2018-07-21T05:31:07.736Z,43.03
2018-07-21T05:33:35.464Z,42.52
2018-07-21T05:36:03.141Z,40.92
2018-07-21T05:38:30.730Z,40.59
2018-07-21T05:40:58.334Z,41.04
2018-07-21T05:43:26.040Z,40.31
2018-07-21T05:45:53.702Z,39.70
2018-07-21T05:48:21.350Z,39.26
2018-07-21T05:50:49.030Z,39.51
2018-07-21T05:53:16.702Z,38.71
2018-07-21T05:55:44.434Z,38.49
2018-07-21T05:58:12.058Z,37.70
2018-07-21T06:00:39.676Z,37.66
2018-07-21T06:03:07.444Z,37.46
2018-07-21T06:05:34.956Z,36.50
2018-07-21T06:08:02.728Z,36.74
2018-07-21T06:10:30.382Z,36.23
2018-07-21T06:12:57.988Z,35.45
2018-07-21T06:15:25.682Z,35.33
2018-07-21T06:17:53.300Z,34.99
2018-07-21T06:20:20.921Z,34.83
2018-07-21T06:22:48.597Z,34.16
2018-07-21T06:25:16.379Z,33.79
2018-07-21T06:27:44.054Z,33.99
2018-07-21T06:30:11.738Z,33.92
2018-07-21T06:32:39.515Z,34.01
2018-07-21T06:35:07.354Z,33.18
2018-07-21T06:37:35.130Z,33.55
2018-07-21T06:40:02.962Z,32.98
2018-07-21T06:42:30.617Z,33.79
2018-07-21T06:44:58.281Z,32.62
2018-07-21T06:47:26.218Z,32.56
2018-07-21T06:49:53.828Z,32.31
2018-07-21T06:52:22.491Z,32.15
2018-07-21T06:54:50.301Z,31.97
2018-07-21T06:57:18.809Z,31.73
2018-07-21T06:59:46.453Z,30.99
2018-07-21T07:02:14.390Z,31.35
2018-07-21T07:04:42.817Z,31.01
2018-07-21T07:07:10.724Z,30.43
2018-07-21T07:09:38.384Z,30.19
2018-07-21T07:12:06.072Z,30.29
2018-07-21T07:14:33.752Z,29.88
2018-07-21T07:17:01.426Z,29.42
2018-07-21T07:19:29.086Z,29.46
2018-07-21T07:21:56.796Z,30.08
2018-07-21T07:24:24.522Z,29.40
2018-07-21T07:26:52.222Z,29.93
2018-07-21T07:29:20.167Z,30.83
2018-07-21T07:31:47.865Z,30.79
2018-07-21T07:34:15.512Z,30.85
2018-07-21T07:36:43.188Z,29.39
2018-07-21T07:39:10.998Z,29.38
2018-07-21T07:41:38.998Z,28.98
2018-07-21T07:44:06.725Z,29.75
2018-07-21T07:46:34.666Z,29.73
2018-07-21T07:49:02.315Z,29.42
2018-07-21T07:51:30.210Z,28.81
2018-07-21T07:53:57.948Z,28.64
2018-07-21T07:56:25.743Z,28.62
2018-07-21T07:58:53.385Z,28.53
2018-07-21T08:01:21.208Z,28.02
2018-07-21T08:03:48.963Z,28.23
2018-07-21T08:06:16.687Z,27.90
2018-07-21T08:08:44.339Z,27.61
2018-07-21T08:11:12.059Z,27.83
2018-07-21T08:13:39.712Z,27.13
2018-07-21T08:16:07.363Z,27.74
2018-07-21T08:18:35.054Z,27.09
2018-07-21T08:21:02.658Z,26.64
2018-07-21T08:23:30.326Z,26.79
2018-07-21T08:25:58.002Z,26.77
2018-07-21T08:28:25.670Z,25.91
2018-07-21T08:30:53.348Z,25.11
2018-07-21T08:33:21.046Z,25.68
2018-07-21T08:35:48.634Z,24.20
2018-07-21T08:38:16.258Z,23.61
2018-07-21T08:40:43.879Z,23.28
2018-07-21T08:43:11.503Z,23.03
2018-07-21T08:45:39.131Z,22.78
2018-07-21T08:48:06.814Z,22.20
2018-07-21T08:50:34.674Z,22.74
2018-07-21T08:53:02.304Z,22.44
2018-07-21T08:55:29.982Z,23.37
2018-07-21T08:57:57.792Z,22.50
2018-07-21T09:00:25.489Z,22.17
2018-07-21T09:02:53.651Z,22.36
2018-07-21T09:05:21.329Z,21.92
2018-07-21T09:07:48.939Z,21.46
2018-07-21T09:10:16.537Z,20.40
2018-07-21T09:12:44.205Z,20.94
2018-07-21T09:15:11.921Z,20.42
2018-07-21T09:17:39.783Z,19.43
2018-07-21T09:20:07.395Z,19.55
2018-07-21T09:22:35.052Z,19.77
2018-07-21T09:25:02.765Z,19.73
2018-07-21T09:27:30.398Z,20.00
2018-07-21T09:29:57.944Z,20.38
2018-07-21T09:32:25.632Z,19.68
2018-07-21T09:34:53.236Z,19.64
2018-07-21T09:37:20.878Z,20.10
2018-07-21T09:39:48.616Z,19.61
2018-07-21T09:42:16.243Z,20.79
2018-07-21T09:44:43.950Z,20.15
2018-07-21T09:47:11.549Z,20.10
2018-07-21T09:49:39.232Z,19.77
2018-07-21T09:52:06.903Z,19.66
2018-07-21T09:54:34.719Z,19.57
2018-07-21T09:57:02.387Z,19.74
2018-07-21T09:59:30.041Z,19.47
2018-07-21T10:01:57.663Z,19.00
2018-07-21T10:04:25.314Z,18.66
2018-07-21T10:06:52.923Z,17.70
2018-07-21T10:09:20.581Z,19.36
2018-07-21T10:11:48.278Z,20.37
2018-07-21T10:14:15.936Z,19.52
2018-07-21T10:16:43.565Z,18.74
2018-07-21T10:19:11.248Z,19.23
2018-07-21T10:21:38.922Z,18.90
2018-07-21T10:24:12.525Z,20.16
2018-07-21T10:26:46.038Z,19.66
2018-07-21T10:29:14.138Z,20.09
2018-07-21T10:31:42.994Z,17.90
2018-07-21T10:34:11.205Z,18.16
2018-07-21T10:36:39.562Z,18.33
2018-07-21T10:39:10.601Z,17.07
2018-07-21T10:41:38.231Z,18.05
2018-07-21T10:44:05.970Z,18.04
2018-07-21T10:46:34.030Z,17.57
2018-07-21T10:49:01.666Z,17.33
2018-07-21T10:51:29.313Z,17.02
2018-07-21T10:53:56.990Z,16.41
2018-07-21T10:56:24.694Z,16.65
2018-07-21T10:58:52.350Z,16.54
2018-07-21T11:01:20.090Z,15.48
2018-07-21T11:03:47.778Z,16.13
2018-07-21T11:06:15.629Z,16.55
2018-07-21T11:08:43.416Z,15.79
2018-07-21T11:11:11.207Z,16.71
2018-07-21T11:13:38.991Z,15.84
2018-07-21T11:16:06.998Z,15.82
2018-07-21T11:18:34.752Z,15.50
2018-07-21T11:21:02.495Z,15.58
2018-07-21T11:23:30.392Z,14.83
2018-07-21T11:25:58.133Z,14.83
2018-07-21T11:28:25.860Z,14.44
2018-07-21T11:30:53.515Z,14.69
2018-07-21T11:33:21.377Z,14.28
2018-07-21T11:35:49.317Z,14.21
2018-07-21T11:38:16.794Z,14.19
2018-07-21T11:40:44.499Z,13.95
2018-07-21T11:43:12.294Z,13.81
2018-07-21T11:45:40.021Z,12.91
2018-07-21T11:48:07.688Z,13.07
2018-07-21T11:50:35.396Z,13.33
2018-07-21T11:53:03.110Z,12.26
2018-07-21T11:55:30.808Z,12.62
2018-07-21T11:57:58.530Z,12.67
2018-07-21T12:00:26.755Z,12.30
2018-07-21T12:02:54.492Z,12.12
2018-07-21T12:05:22.240Z,12.28
2018-07-21T12:07:49.799Z,11.61
2018-07-21T12:10:17.546Z,11.33
2018-07-21T12:12:45.190Z,11.99
2018-07-21T12:15:12.947Z,10.72
2018-07-21T12:17:40.891Z,9.78
2018-07-21T12:20:08.608Z,9.24
2018-07-21T12:22:36.368Z,9.13
2018-07-21T12:25:04.243Z,9.87
2018-07-21T12:27:31.887Z,11.24
2018-07-21T12:29:59.607Z,11.60
2018-07-21T12:32:27.277Z,10.85
2018-07-21T12:34:54.951Z,9.72
2018-07-21T12:37:22.673Z,8.84
2018-07-21T12:39:50.455Z,7.29
2018-07-21T12:42:18.127Z,7.25
2018-07-21T12:44:45.841Z,8.22
2018-07-21T12:47:13.493Z,9.64
2018-07-21T12:49:41.850Z,10.29
2018-07-21T12:52:09.795Z,12.07
2018-07-21T12:54:37.463Z,11.74
2018-07-21T12:57:05.535Z,12.92
2018-07-21T12:59:33.579Z,12.57
2018-07-21T13:02:01.300Z,14.11
2018-07-21T13:04:29.719Z,14.71
2018-07-21T13:06:57.463Z,15.46
2018-07-21T13:09:25.100Z,16.09
2018-07-21T13:11:52.819Z,15.10
2018-07-21T13:14:20.460Z,14.40
2018-07-21T13:16:48.112Z,14.58
2018-07-21T13:19:15.846Z,15.13
2018-07-21T13:21:43.529Z,14.21
2018-07-21T13:24:11.202Z,14.72
2018-07-21T13:26:38.901Z,14.33
2018-07-21T13:29:06.654Z,14.07
2018-07-21T13:31:34.314Z,14.10
2018-07-21T13:34:02.711Z,14.35
2018-07-21T13:36:30.421Z,13.74
2018-07-21T13:38:58.095Z,13.75
2018-07-21T13:41:25.725Z,14.73
2018-07-21T13:43:53.397Z,15.34
2018-07-21T13:46:21.129Z,16.20
2018-07-21T13:48:48.785Z,16.93
2018-07-21T13:51:16.430Z,17.00
2018-07-21T13:53:44.155Z,17.78
2018-07-21T13:56:11.826Z,17.85
2018-07-21T13:58:39.566Z,18.90
2018-07-21T14:01:07.915Z,18.49
2018-07-21T14:03:35.568Z,18.68
2018-07-21T14:06:03.207Z,20.12
2018-07-21T14:08:30.897Z,19.93
2018-07-21T14:10:58.553Z,19.63
2018-07-21T14:13:26.210Z,20.85
2018-07-21T14:15:54.019Z,20.97
2018-07-21T14:18:21.776Z,20.48
2018-07-21T14:20:49.426Z,21.63
2018-07-21T14:23:17.058Z,21.33
2018-07-21T14:25:44.715Z,21.07
2018-07-21T14:28:12.670Z,21.33
2018-07-21T14:30:40.409Z,21.08
2018-07-21T14:33:08.163Z,21.77
2018-07-21T14:35:35.858Z,22.19
2018-07-21T14:38:03.555Z,21.33
2018-07-21T14:40:31.188Z,22.51
2018-07-21T14:42:58.847Z,21.74
2018-07-21T14:45:26.483Z,22.61
2018-07-21T14:47:54.185Z,23.12
2018-07-21T14:50:21.837Z,22.90
2018-07-21T14:52:49.518Z,23.49
2018-07-21T14:55:17.188Z,23.70
2018-07-21T14:57:45.219Z,24.62
2018-07-21T15:00:13.117Z,23.75
2018-07-21T15:02:40.788Z,24.93
2018-07-21T15:05:08.771Z,24.38
2018-07-21T15:07:36.869Z,25.06
2018-07-21T15:10:04.610Z,24.49
2018-07-21T15:12:32.272Z,25.40
2018-07-21T15:15:00.914Z,25.94
2018-07-21T15:17:28.618Z,25.38
2018-07-21T15:19:56.314Z,25.01
2018-07-21T15:22:24.027Z,25.15
2018-07-21T15:24:51.677Z,25.66
2018-07-21T15:27:19.293Z,25.43
2018-07-21T15:29:47.968Z,25.41
2018-07-21T15:32:15.733Z,24.87
2018-07-21T15:34:43.514Z,25.51
2018-07-21T15:37:11.223Z,25.58
2018-07-21T15:39:38.928Z,25.25
2018-07-21T15:42:06.696Z,24.36
2018-07-21T15:44:34.448Z,24.57
2018-07-21T15:47:02.284Z,24.55
2018-07-21T15:49:29.990Z,25.29
2018-07-21T15:51:57.665Z,24.96
2018-07-21T15:54:25.379Z,25.22
2018-07-21T15:56:54.134Z,25.73
2018-07-21T15:59:22.093Z,25.67
2018-07-21T16:01:49.710Z,25.04
2018-07-21T16:04:17.400Z,25.60
2018-07-21T16:06:45.196Z,25.16
2018-07-21T16:09:12.838Z,25.41
2018-07-21T16:11:40.716Z,25.33
2018-07-21T16:14:08.513Z,25.07
2018-07-21T16:16:36.161Z,25.15
2018-07-21T16:19:04.231Z,26.01
2018-07-21T16:21:31.953Z,25.38
2018-07-21T16:23:59.670Z,25.87
2018-07-21T16:26:27.291Z,25.82
2018-07-21T16:28:54.941Z,26.06
2018-07-21T16:31:22.691Z,26.22
2018-07-21T16:33:50.395Z,26.40
2018-07-21T16:36:18.292Z,26.19
2018-07-21T16:38:46.169Z,25.62
2018-07-21T16:41:13.902Z,26.41
2018-07-21T16:43:41.595Z,26.04
2018-07-21T16:46:09.281Z,26.30
2018-07-21T16:48:36.988Z,26.19
2018-07-21T16:51:05.436Z,26.28
2018-07-21T16:53:33.167Z,26.17
2018-07-21T16:56:00.840Z,26.48
2018-07-21T16:58:28.444Z,27.04
2018-07-21T17:00:56.174Z,26.70
2018-07-21T17:03:24.698Z,27.16
2018-07-21T17:05:52.343Z,26.08
2018-07-21T17:08:20.063Z,26.87
2018-07-21T17:10:47.750Z,25.96
2018-07-21T17:13:15.686Z,26.83
2018-07-21T17:15:43.353Z,26.89
2018-07-21T17:18:11.070Z,26.14
2018-07-21T17:20:38.775Z,26.76
2018-07-21T17:23:06.485Z,26.12
2018-07-21T17:25:34.256Z,26.12
2018-07-21T17:28:02.279Z,26.86
2018-07-21T17:30:30.353Z,26.27
2018-07-21T17:32:58.021Z,26.34
2018-07-21T17:35:25.623Z,26.17
2018-07-21T17:37:53.330Z,26.73
2018-07-21T17:40:21.005Z,26.42
2018-07-21T17:42:48.811Z,25.80
2018-07-21T17:45:16.718Z,27.21
2018-07-21T17:47:44.424Z,25.41
2018-07-21T17:50:12.194Z,25.74
2018-07-21T17:52:40.759Z,25.58
2018-07-21T17:55:08.616Z,25.28
2018-07-21T17:57:36.400Z,26.23
2018-07-21T18:00:04.923Z,26.09
2018-07-21T18:02:33.504Z,26.38
2018-07-21T18:05:01.184Z,26.30
2018-07-21T18:07:28.858Z,26.13
2018-07-21T18:09:56.615Z,27.11
2018-07-21T18:12:24.302Z,26.50
2018-07-21T18:14:51.939Z,26.63
2018-07-21T18:17:19.682Z,27.11
2018-07-21T18:19:47.400Z,26.58
2018-07-21T18:22:15.580Z,26.67
2018-07-21T18:24:43.266Z,26.70
2018-07-21T18:27:10.941Z,26.65
2018-07-21T18:29:38.709Z,26.66
2018-07-21T18:32:06.377Z,26.53
2018-07-21T18:34:34.125Z,26.99
2018-07-21T18:37:01.899Z,27.70
2018-07-21T18:39:29.614Z,27.83
2018-07-21T18:41:57.467Z,27.79
2018-07-21T18:44:25.154Z,28.06
2018-07-21T18:46:52.871Z,28.59
2018-07-21T18:49:20.518Z,29.46
2018-07-21T18:51:48.203Z,29.37
2018-07-21T18:54:15.995Z,29.26
2018-07-21T18:56:43.765Z,29.65
2018-07-21T18:59:11.517Z,30.05
2018-07-21T19:01:39.386Z,30.70
2018-07-21T19:04:07.188Z,30.62
2018-07-21T19:06:34.971Z,31.49
2018-07-21T19:09:04.991Z,30.62
2018-07-21T19:11:32.988Z,31.46
2018-07-21T19:14:00.625Z,31.68
2018-07-21T19:16:34.160Z,31.42
2018-07-21T19:19:01.906Z,31.51
2018-07-21T19:21:29.734Z,32.33
2018-07-21T19:23:57.659Z,32.59
2018-07-21T19:27:28.698Z,32.87
2018-07-21T19:29:57.410Z,33.67
2018-07-21T19:32:30.861Z,33.55
2018-07-21T19:34:58.764Z,33.63
2018-07-21T19:37:32.286Z,33.48
2018-07-21T19:40:00.153Z,34.03
2018-07-21T19:42:28.031Z,35.70
2018-07-21T19:44:55.878Z,34.85
2018-07-21T19:47:23.697Z,36.13
2018-07-21T19:49:53.507Z,37.07
2018-07-21T19:52:21.558Z,37.31
2018-07-21T19:54:49.434Z,36.79
2018-07-21T19:57:27.646Z,36.67
2018-07-21T19:59:55.377Z,36.88
2018-07-21T20:02:23.244Z,38.12
2018-07-21T20:04:51.122Z,37.63
2018-07-21T20:07:18.995Z,36.72
2018-07-21T20:09:47.079Z,37.42
2018-07-21T20:12:14.969Z,36.62
2018-07-21T20:14:42.791Z,37.49
2018-07-21T20:17:11.686Z,38.68
2018-07-21T20:19:39.763Z,38.01
2018-07-21T20:22:08.079Z,38.13
2018-07-21T20:24:36.249Z,37.54
2018-07-21T20:27:04.011Z,37.47
2018-07-21T20:29:31.867Z,37.55
2018-07-21T20:31:59.628Z,37.71
2018-07-21T20:34:27.431Z,36.89
2018-07-21T20:36:55.189Z,36.86
2018-07-21T20:39:23.167Z,37.18
2018-07-21T20:41:50.988Z,37.05
2018-07-21T20:44:18.779Z,36.53
2018-07-21T20:46:46.527Z,37.11
2018-07-21T20:49:14.405Z,37.29
2018-07-21T20:51:42.306Z,37.61
2018-07-21T20:54:10.162Z,37.32
2018-07-21T20:56:38.077Z,38.31
2018-07-21T20:59:05.853Z,38.15
2018-07-21T21:01:33.660Z,37.83
2018-07-21T21:04:01.459Z,37.54
2018-07-21T21:06:29.382Z,37.17
2018-07-21T21:08:57.122Z,37.48
2018-07-21T21:11:24.921Z,37.95
2018-07-21T21:13:52.724Z,37.99
2018-07-21T21:16:20.506Z,38.03
2018-07-21T21:18:48.346Z,38.06
2018-07-21T21:21:16.378Z,38.19
2018-07-21T21:23:44.165Z,39.36
2018-07-21T21:26:12.082Z,39.36
2018-07-21T21:28:39.806Z,40.28
2018-07-21T21:31:07.518Z,39.81
2018-07-21T21:33:35.245Z,40.35
2018-07-21T21:36:03.108Z,40.72
2018-07-21T21:38:30.847Z,40.19
2018-07-21T21:40:58.565Z,40.38
2018-07-21T21:43:26.291Z,40.28
2018-07-21T21:45:54.033Z,42.37
2018-07-21T21:48:21.790Z,40.24
2018-07-21T21:50:58.046Z,41.90
2018-07-21T21:53:25.909Z,40.69
2018-07-21T21:55:53.668Z,41.65
2018-07-21T21:58:21.408Z,42.72
2018-07-21T22:01:08.143Z,41.12
2018-07-21T22:03:35.897Z,43.18
2018-07-21T22:06:03.829Z,41.91
2018-07-21T22:08:32.269Z,42.60
2018-07-21T22:11:00.401Z,42.85
2018-07-21T22:13:28.697Z,42.80
2018-07-21T22:15:57.155Z,42.79
2018-07-21T22:18:25.177Z,42.17
2018-07-21T22:20:52.897Z,42.45
2018-07-21T22:23:20.634Z,42.08
2018-07-21T22:25:48.325Z,43.00
2018-07-21T22:28:17.055Z,42.12
2018-07-21T22:30:44.695Z,42.65
2018-07-21T22:33:12.341Z,43.83
2018-07-21T22:35:39.967Z,42.68
2018-07-21T22:38:07.703Z,42.90
2018-07-21T22:40:35.422Z,43.25
2018-07-21T22:43:03.217Z,43.53
2018-07-21T22:45:31.028Z,42.71
2018-07-21T22:47:58.673Z,44.14
2018-07-21T22:50:26.362Z,43.71
2018-07-21T22:52:54.218Z,43.62
2018-07-21T22:55:21.902Z,43.98
2018-07-21T22:57:49.524Z,44.97
2018-07-21T23:00:17.274Z,45.40
2018-07-21T23:02:45.019Z,45.42
2018-07-21T23:05:12.730Z,45.57
2018-07-21T23:07:40.367Z,44.87
2018-07-21T23:10:08.091Z,44.85
2018-07-21T23:12:36.342Z,44.95
2018-07-21T23:15:05.098Z,44.63
2018-07-21T23:17:32.745Z,45.15
2018-07-21T23:20:00.443Z,45.94
2018-07-21T23:22:28.083Z,46.17
2018-07-21T23:24:55.835Z,45.87
2018-07-21T23:27:23.519Z,46.67
2018-07-21T23:29:51.189Z,46.51
2018-07-21T23:32:18.776Z,46.02
2018-07-21T23:34:46.455Z,45.49
2018-07-21T23:37:14.122Z,45.48
2018-07-21T23:39:41.758Z,46.08
2018-07-21T23:42:09.440Z,45.37
2018-07-21T23:44:37.128Z,46.12
2018-07-21T23:47:04.838Z,45.98
2018-07-21T23:49:32.581Z,45.44
2018-07-21T23:52:00.230Z,44.84
2018-07-21T23:54:27.923Z,45.53
2018-07-21T23:56:55.573Z,45.34
2018-07-21T23:59:23.241Z,44.39
